Time;durP1;ratioP1;P1;durP2;ratioP2;P2;SDS_P1;SDS_P2;PMS_P1;PMS_P2;Temp;Humidity;BMP_temperature;BMP_pressure;BME280_temperature;BME280_humidity;BME280_pressure;Samples;Min_cycle;Max_cycle;Signal;HPM_P1;HPM_P2
2021/11/01 00:02:22;;;;;;;;;;;9.30;99.90;;;;;;5002968;28;19926;-74
2021/11/01 00:04:48;;;;;;;;;;;9.30;99.90;;;;;;5001049;28;19925;-74
2021/11/01 00:07:15;;;;;;;;;;;9.20;99.90;;;;;;5005711;28;19931;-74
2021/11/01 00:09:42;;;;;;;;;;;9.30;99.90;;;;;;5004857;28;20369;-78
2021/11/01 00:12:09;;;;;;;;;;;9.30;99.90;;;;;;5005747;28;20020;-73
2021/11/01 00:14:35;;;;;;;;;;;9.30;99.90;;;;;;5001870;28;19925;-74
2021/11/01 00:17:03;;;;;;;;;;;9.30;99.90;;;;;;5004192;28;20358;-74
2021/11/01 00:19:31;;;;;;;;;;;9.30;99.90;;;;;;5004265;28;19926;-74
2021/11/01 00:21:57;;;;;;;;;;;9.30;99.90;;;;;;5005336;28;19932;-74
2021/11/01 00:24:24;;;;;;;;;;;9.30;99.90;;;;;;5003742;28;19933;-74
2021/11/01 00:26:50;;;;;;;;;;;9.30;99.90;;;;;;5005239;28;19933;-74
2021/11/01 00:29:17;;;;;;;;;;;9.40;99.90;;;;;;5003306;28;19930;-74
2021/11/01 00:31:44;;;;;;;;;;;9.40;99.90;;;;;;5006772;28;19937;-74
2021/11/01 00:34:10;;;;;;;;;;;9.30;99.90;;;;;;4997030;28;20036;-74
2021/11/01 00:36:38;;;;;;;;;;;9.40;99.90;;;;;;5001370;28;19933;-74
2021/11/01 00:39:05;;;;;;;;;;;9.40;99.90;;;;;;5001582;28;19930;-74
2021/11/01 00:41:32;;;;;;;;;;;9.40;99.90;;;;;;5004968;28;19932;-74
2021/11/01 00:44:00;;;;;;;;;;;9.40;99.90;;;;;;5003642;28;19939;-74
2021/11/01 00:46:26;;;;;;;;;;;9.40;99.90;;;;;;5005784;28;20513;-74
2021/11/01 00:48:53;;;;;;;;;;;9.40;99.90;;;;;;5002616;28;20467;-75
2021/11/01 00:51:20;;;;;;;;;;;9.50;99.90;;;;;;5004953;28;19926;-74
2021/11/01 00:53:49;;;;;;;;;;;9.40;99.90;;;;;;5002340;28;19965;-74
2021/11/01 00:56:16;;;;;;;;;;;9.40;99.90;;;;;;5003022;28;19925;-74
2021/11/01 00:58:43;;;;;;;;;;;9.40;99.90;;;;;;5002074;28;20040;-74
2021/11/01 01:01:10;;;;;;;;;;;9.30;99.90;;;;;;5019832;28;20449;-74
2021/11/01 01:03:37;;;;;;;;;;;9.40;99.90;;;;;;5005893;28;20024;-73
2021/11/01 01:06:04;;;;;;;;;;;9.30;99.90;;;;;;5006005;28;19930;-74
2021/11/01 01:08:30;;;;;;;;;;;9.30;99.90;;;;;;5007609;28;19952;-75
2021/11/01 01:10:58;;;;;;;;;;;9.30;99.90;;;;;;5007146;28;19930;-74
2021/11/01 01:13:29;;;;;;;;;;;9.30;99.90;;;;;;5001699;28;19932;-74
2021/11/01 01:16:02;;;;;;;;;;;9.30;99.90;;;;;;5003517;28;19949;-74
2021/11/01 01:18:32;;;;;;;;;;;9.20;99.90;;;;;;5002782;28;19933;-74
2021/11/01 01:21:00;;;;;;;;;;;9.20;99.90;;;;;;5006973;28;19925;-73
2021/11/01 01:23:27;;;;;;;;;;;9.20;99.90;;;;;;5003368;28;19925;-72
2021/11/01 01:25:56;;;;;;;;;;;9.20;99.90;;;;;;5006994;28;19925;-74
2021/11/01 01:28:24;;;;;;;;;;;9.10;99.90;;;;;;5005371;28;19925;-74
2021/11/01 01:30:51;;;;;;;;;;;9.10;99.90;;;;;;5006604;28;20328;-75
2021/11/01 01:33:18;;;;;;;;;;;9.00;99.90;;;;;;5008279;28;19926;-74
2021/11/01 01:35:45;;;;;;;;;;;9.00;99.90;;;;;;5005827;28;20415;-74
2021/11/01 01:38:12;;;;;;;;;;;9.00;99.90;;;;;;5009284;28;19933;-74
2021/11/01 01:40:39;;;;;;;;;;;9.00;99.90;;;;;;5002790;28;19925;-73
2021/11/01 01:43:06;;;;;;;;;;;9.00;99.90;;;;;;5004936;28;19926;-73
2021/11/01 01:45:35;;;;;;;;;;;9.00;99.90;;;;;;5005074;28;19933;-73
2021/11/01 01:48:03;;;;;;;;;;;9.00;99.90;;;;;;5004535;28;19939;-74
2021/11/01 01:50:29;;;;;;;;;;;9.00;99.90;;;;;;5004645;28;19926;-73
2021/11/01 01:52:56;;;;;;;;;;;9.00;99.90;;;;;;5005806;28;19933;-74
2021/11/01 01:55:23;;;;;;;;;;;9.00;99.90;;;;;;5004273;28;19941;-74
2021/11/01 01:57:52;;;;;;;;;;;8.90;99.90;;;;;;5005296;28;20672;-77
2021/11/01 02:00:31;;;;;;;;;;;8.90;99.90;;;;;;5002736;28;19933;-74
2021/11/01 02:03:00;;;;;;;;;;;9.00;99.90;;;;;;5004605;28;19968;-74
2021/11/01 02:05:29;;;;;;;;;;;9.00;99.90;;;;;;5003433;28;19948;-74
2021/11/01 02:07:58;;;;;;;;;;;9.00;99.90;;;;;;5005588;28;19926;-75
2021/11/01 02:10:29;;;;;;;;;;;9.00;99.90;;;;;;5003954;28;19925;-74
2021/11/01 02:12:58;;;;;;;;;;;9.00;99.90;;;;;;5004310;28;19925;-74
2021/11/01 02:15:28;;;;;;;;;;;9.00;99.90;;;;;;5004579;28;19930;-74
2021/11/01 02:17:56;;;;;;;;;;;8.90;99.90;;;;;;4999460;28;19932;-74
2021/11/01 02:20:30;;;;;;;;;;;8.90;99.90;;;;;;5003794;28;20402;-74
2021/11/01 02:23:01;;;;;;;;;;;8.90;99.90;;;;;;5007127;28;20372;-74
2021/11/01 02:25:38;;;;;;;;;;;8.90;99.90;;;;;;5004189;28;19965;-74
2021/11/01 02:28:05;;;;;;;;;;;8.90;99.90;;;;;;5004141;28;19935;-73
2021/11/01 02:30:32;;;;;;;;;;;8.90;99.90;;;;;;5006095;28;20366;-74
2021/11/01 02:32:59;;;;;;;;;;;8.90;99.90;;;;;;5006746;28;19936;-74
2021/11/01 02:35:26;;;;;;;;;;;8.90;99.90;;;;;;5005814;28;19925;-73
2021/11/01 02:37:53;;;;;;;;;;;8.90;99.90;;;;;;5006766;28;19926;-74
2021/11/01 02:40:26;;;;;;;;;;;8.90;99.90;;;;;;5003049;28;19925;-74
2021/11/01 02:42:54;;;;;;;;;;;8.90;99.90;;;;;;5003861;28;19926;-73
2021/11/01 02:45:21;;;;;;;;;;;8.90;99.90;;;;;;5002594;28;19932;-73
2021/11/01 02:47:48;;;;;;;;;;;8.90;99.90;;;;;;5003108;28;19933;-71
2021/11/01 02:50:17;;;;;;;;;;;8.90;99.90;;;;;;5004503;28;20489;-73
2021/11/01 02:52:44;;;;;;;;;;;8.90;99.90;;;;;;5008934;28;19925;-74
2021/11/01 02:55:11;;;;;;;;;;;8.90;99.90;;;;;;5005034;28;20447;-74
2021/11/01 02:57:39;;;;;;;;;;;8.90;99.90;;;;;;5004316;28;19964;-74
2021/11/01 03:00:08;;;;;;;;;;;8.80;99.90;;;;;;5005745;28;19929;-73
2021/11/01 03:02:35;;;;;;;;;;;8.80;99.90;;;;;;5005204;28;19925;-73
2021/11/01 03:05:02;;;;;;;;;;;8.80;99.90;;;;;;5006203;28;19925;-73
2021/11/01 03:07:29;;;;;;;;;;;8.80;99.90;;;;;;5005335;28;19940;-73
2021/11/01 03:09:56;;;;;;;;;;;8.80;99.90;;;;;;5004819;28;19986;-73
2021/11/01 03:12:25;;;;;;;;;;;8.80;99.90;;;;;;5008513;28;19937;-72
2021/11/01 03:14:59;;;;;;;;;;;8.80;99.90;;;;;;5004981;28;19933;-73
2021/11/01 03:17:29;;;;;;;;;;;8.70;99.90;;;;;;5003586;28;19979;-73
2021/11/01 03:19:59;;;;;;;;;;;8.70;99.90;;;;;;5004951;28;20315;-73
2021/11/01 03:22:27;;;;;;;;;;;8.70;99.90;;;;;;5003134;28;19926;-73
2021/11/01 03:24:58;;;;;;;;;;;8.70;99.90;;;;;;5005117;28;20025;-73
2021/11/01 03:27:25;;;;;;;;;;;8.70;99.90;;;;;;5007700;28;19968;-74
2021/11/01 03:29:52;;;;;;;;;;;8.60;99.90;;;;;;5005449;28;19926;-73
2021/11/01 03:32:20;;;;;;;;;;;8.60;99.90;;;;;;5001887;28;20400;-74
2021/11/01 03:34:48;;;;;;;;;;;8.60;99.90;;;;;;5005136;28;20021;-73
2021/11/01 03:37:17;;;;;;;;;;;8.60;99.90;;;;;;4998349;28;20008;-73
2021/11/01 03:39:44;;;;;;;;;;;8.60;99.90;;;;;;5006110;28;19971;-73
2021/11/01 03:42:12;;;;;;;;;;;8.60;99.90;;;;;;5004526;28;19932;-72
2021/11/01 03:44:44;;;;;;;;;;;8.60;99.90;;;;;;5002756;28;19929;-73
2021/11/01 03:47:12;;;;;;;;;;;8.60;99.90;;;;;;5003729;28;19960;-73
2021/11/01 03:49:48;;;;;;;;;;;8.60;99.90;;;;;;5004691;28;19990;-73
2021/11/01 03:52:20;;;;;;;;;;;8.60;99.90;;;;;;5005413;28;19942;-73
2021/11/01 03:54:47;;;;;;;;;;;8.60;99.90;;;;;;5004662;28;20451;-72
2021/11/01 03:57:14;;;;;;;;;;;8.60;99.90;;;;;;5006533;28;19925;-74
2021/11/01 03:59:40;;;;;;;;;;;8.60;99.90;;;;;;5003240;28;19932;-72
2021/11/01 04:02:10;;;;;;;;;;;8.70;99.90;;;;;;5000401;28;19937;-73
2021/11/01 04:04:37;;;;;;;;;;;8.70;99.90;;;;;;5002693;28;19925;-72
2021/11/01 04:07:04;;;;;;;;;;;8.70;99.90;;;;;;5008649;28;20012;-71
2021/11/01 04:09:32;;;;;;;;;;;8.70;99.90;;;;;;5002181;28;20083;-71
2021/11/01 04:11:58;;;;;;;;;;;8.70;99.90;;;;;;5007135;28;19933;-72
2021/11/01 04:14:27;;;;;;;;;;;8.70;99.90;;;;;;5006557;28;19991;-72
2021/11/01 04:16:58;;;;;;;;;;;8.80;99.90;;;;;;5007951;28;19925;-72
2021/11/01 04:19:38;;;;;;;;;;;8.70;99.90;;;;;;5003108;28;20372;-72
2021/11/01 04:22:05;;;;;;;;;;;8.70;99.90;;;;;;5000021;28;19933;-72
2021/11/01 04:24:33;;;;;;;;;;;8.70;99.90;;;;;;4997891;28;20327;-72
2021/11/01 04:27:00;;;;;;;;;;;8.70;99.90;;;;;;5006819;28;20005;-72
2021/11/01 04:29:30;;;;;;;;;;;8.70;99.90;;;;;;5005922;28;19952;-72
2021/11/01 04:32:05;;;;;;;;;;;8.60;99.90;;;;;;5001996;28;19933;-72
2021/11/01 04:34:33;;;;;;;;;;;8.70;99.90;;;;;;5002573;28;19932;-72
2021/11/01 04:36:59;;;;;;;;;;;8.60;99.90;;;;;;5007639;28;19930;-72
2021/11/01 04:39:34;;;;;;;;;;;8.70;99.90;;;;;;5007342;28;19935;-72
2021/11/01 04:42:28;;;;;;;;;;;8.70;99.90;;;;;;5009390;28;19925;-71
2021/11/01 04:53:09;;;;;;;;;;;8.70;99.90;;;;;;5005381;28;19951;-72
2021/11/01 04:55:36;;;;;;;;;;;8.70;99.90;;;;;;5010485;28;20468;-72
2021/11/01 04:58:04;;;;;;;;;;;8.70;99.90;;;;;;5007047;28;20380;-72
2021/11/01 05:00:31;;;;;;;;;;;8.70;99.90;;;;;;5006703;28;19936;-72
2021/11/01 05:03:02;;;;;;;;;;;8.70;99.90;;;;;;5007306;28;19930;-72
2021/11/01 05:05:28;;;;;;;;;;;8.70;99.90;;;;;;5006121;28;19937;-73
2021/11/01 05:07:58;;;;;;;;;;;8.70;99.90;;;;;;5005790;28;19930;-72
2021/11/01 05:10:28;;;;;;;;;;;8.70;99.90;;;;;;5009358;28;19991;-72
2021/11/01 05:12:55;;;;;;;;;;;8.70;99.90;;;;;;5007536;28;19926;-73
2021/11/01 05:15:31;;;;;;;;;;;8.80;99.90;;;;;;5005520;28;19931;-73
2021/11/01 05:18:00;;;;;;;;;;;8.80;99.90;;;;;;5008561;28;19932;-71
2021/11/01 05:20:32;;;;;;;;;;;8.80;99.90;;;;;;5005224;28;19930;-72
2021/11/01 05:23:09;;;;;;;;;;;8.90;99.90;;;;;;4995500;28;20400;-72
2021/11/01 05:25:39;;;;;;;;;;;8.90;99.90;;;;;;5005802;28;19967;-72
2021/11/01 05:28:11;;;;;;;;;;;8.90;99.90;;;;;;5008608;28;19979;-72
2021/11/01 05:30:42;;;;;;;;;;;8.90;99.90;;;;;;5008677;28;20308;-72
2021/11/01 05:33:30;;;;;;;;;;;8.90;99.90;;;;;;5007437;28;19926;-72
2021/11/01 05:35:57;;;;;;;;;;;8.90;99.90;;;;;;5002920;28;19926;-72
2021/11/01 05:38:25;;;;;;;;;;;8.90;99.90;;;;;;5002638;28;19925;-72
2021/11/01 05:40:51;;;;;;;;;;;8.90;99.90;;;;;;5008807;28;19926;-72
2021/11/01 05:43:18;;;;;;;;;;;8.90;99.90;;;;;;5006672;28;19932;-72
2021/11/01 05:45:46;;;;;;;;;;;8.90;99.90;;;;;;5008115;28;19925;-72
2021/11/01 05:48:13;;;;;;;;;;;8.90;99.90;;;;;;5005318;28;20028;-72
2021/11/01 05:50:40;;;;;;;;;;;8.90;99.90;;;;;;5009660;28;20390;-73
2021/11/01 05:53:10;;;;;;;;;;;8.90;99.90;;;;;;5008895;28;19930;-72
2021/11/01 05:55:43;;;;;;;;;;;8.90;99.90;;;;;;5006537;28;19925;-72
2021/11/01 05:58:15;;;;;;;;;;;8.90;99.90;;;;;;5005558;28;19925;-72
2021/11/01 06:03:36;;;;;;;;;;;9.10;99.90;;;;;;4992865;28;19934;-73
2021/11/01 06:14:10;;;;;;;;;;;9.00;99.90;;;;;;5006271;28;20462;-72
2021/11/01 06:16:37;;;;;;;;;;;9.00;99.90;;;;;;5008389;28;19932;-73
2021/11/01 06:19:05;;;;;;;;;;;9.00;99.90;;;;;;5007234;28;19926;-72
2021/11/01 06:21:32;;;;;;;;;;;9.00;99.90;;;;;;5008395;28;19926;-73
2021/11/01 06:24:01;;;;;;;;;;;9.00;99.90;;;;;;5006205;28;19991;-73
2021/11/01 06:26:29;;;;;;;;;;;8.90;99.90;;;;;;5001031;28;19948;-73
2021/11/01 06:29:01;;;;;;;;;;;8.80;99.90;;;;;;4998407;28;20391;-72
2021/11/01 06:31:30;;;;;;;;;;;8.80;99.90;;;;;;5006177;28;20414;-72
2021/11/01 06:34:14;;;;;;;;;;;8.80;99.90;;;;;;5003375;28;19975;-73
2021/11/01 06:39:45;;;;;;;;;;;8.80;99.90;;;;;;5002976;28;19945;-73
2021/11/01 06:42:22;;;;;;;;;;;8.90;99.90;;;;;;5004242;28;19978;-72
2021/11/01 06:44:57;;;;;;;;;;;9.00;99.90;;;;;;5006059;28;20023;-72
2021/11/01 06:50:11;;;;;;;;;;;9.10;99.90;;;;;;5005852;28;20027;-72
2021/11/01 06:53:12;;;;;;;;;;;9.20;99.90;;;;;;5004686;28;19926;-72
2021/11/01 06:58:40;;;;;;;;;;;9.10;99.90;;;;;;5003886;28;19941;-73
2021/11/01 07:14:56;;;;;;;;;;;9.00;99.90;;;;;;5002699;28;19948;-73
2021/11/01 07:17:34;;;;;;;;;;;9.00;99.90;;;;;;5002684;28;19926;-72
2021/11/01 08:27:14;;;;;;;;;;;12.70;99.90;;;;;;4942492;28;19934;-71
2021/11/01 08:35:51;;;;;;;;;;;12.00;99.90;;;;;;5000144;28;20312;-71
2021/11/01 08:38:21;;;;;;;;;;;12.50;99.90;;;;;;4996511;28;19925;-71
2021/11/01 08:41:08;;;;;;;;;;;12.60;99.80;;;;;;4998304;28;20294;-71
2021/11/01 08:49:18;;;;;;;;;;;13.30;99.10;;;;;;5019499;28;20396;-72
2021/11/01 09:02:54;;;;;;;;;;;13.60;96.00;;;;;;4999694;28;20003;-72
2021/11/01 09:19:40;;;;;;;;;;;11.60;99.50;;;;;;5003995;28;19948;-72
2021/11/01 09:22:20;;;;;;;;;;;11.20;99.90;;;;;;5014991;28;20319;-72
2021/11/01 09:24:50;;;;;;;;;;;11.30;99.90;;;;;;5006008;28;19929;-73
2021/11/01 09:27:19;;;;;;;;;;;11.20;99.90;;;;;;5006817;28;19933;-73
2021/11/01 09:41:05;;;;;;;;;;;11.30;99.90;;;;;;5013681;28;20402;-72
2021/11/01 09:43:32;;;;;;;;;;;11.30;99.90;;;;;;5008663;28;19941;-72
2021/11/01 09:45:59;;;;;;;;;;;11.40;99.90;;;;;;5006724;28;19926;-72
2021/11/01 09:48:26;;;;;;;;;;;11.50;99.90;;;;;;5006690;28;19933;-71
2021/11/01 09:50:54;;;;;;;;;;;11.60;99.90;;;;;;5005963;28;20296;-72
2021/11/01 09:53:25;;;;;;;;;;;11.50;99.90;;;;;;5003223;28;20016;-73
2021/11/01 09:55:58;;;;;;;;;;;11.30;99.90;;;;;;5005693;28;19925;-73
2021/11/01 10:01:10;;;;;;;;;;;11.30;99.90;;;;;;4999137;28;19940;-72
2021/11/01 10:03:37;;;;;;;;;;;11.50;99.90;;;;;;5000193;28;19926;-71
2021/11/01 10:06:05;;;;;;;;;;;11.50;99.90;;;;;;5002800;28;20012;-72
2021/11/01 10:08:32;;;;;;;;;;;11.70;99.90;;;;;;5005034;28;20016;-73
2021/11/01 10:11:00;;;;;;;;;;;11.80;99.90;;;;;;4999935;28;20607;-73
2021/11/01 10:13:27;;;;;;;;;;;11.80;99.90;;;;;;5005884;28;20062;-72
2021/11/01 10:18:42;;;;;;;;;;;11.80;99.90;;;;;;5009315;28;19936;-72
2021/11/01 10:21:09;;;;;;;;;;;11.70;99.90;;;;;;4999291;28;19952;-72
2021/11/01 10:23:45;;;;;;;;;;;11.70;99.90;;;;;;4999798;28;20391;-73
2021/11/01 10:26:15;;;;;;;;;;;11.60;99.90;;;;;;5004160;28;19939;-72
2021/11/01 10:28:42;;;;;;;;;;;11.80;99.90;;;;;;4995484;28;19987;-73
2021/11/01 10:31:10;;;;;;;;;;;11.90;99.90;;;;;;5000638;28;19925;-73
2021/11/01 10:33:42;;;;;;;;;;;11.90;99.90;;;;;;4997660;28;19930;-73
2021/11/01 10:36:09;;;;;;;;;;;12.10;99.90;;;;;;5002065;28;19926;-73
2021/11/01 10:38:40;;;;;;;;;;;11.90;99.90;;;;;;4996557;28;19964;-74
2021/11/01 10:41:12;;;;;;;;;;;12.00;99.90;;;;;;4999079;28;20353;-71
2021/11/01 10:43:50;;;;;;;;;;;11.80;99.90;;;;;;5001266;28;20280;-72
2021/11/01 10:58:00;;;;;;;;;;;12.10;99.90;;;;;;5005029;28;20596;-72
2021/11/01 11:11:47;;;;;;;;;;;12.10;99.90;;;;;;4941855;28;20389;-73
2021/11/01 11:14:21;;;;;;;;;;;12.00;99.90;;;;;;4944648;28;19970;-73
2021/11/01 11:17:12;;;;;;;;;;;12.00;99.90;;;;;;4976005;28;19925;-73
2021/11/01 11:19:57;;;;;;;;;;;12.20;99.90;;;;;;4998329;28;19926;-73
2021/11/01 11:23:00;;;;;;;;;;;12.40;99.90;;;;;;5005695;28;19925;-73
2021/11/01 11:25:39;;;;;;;;;;;12.30;99.90;;;;;;5003828;28;19973;-73
2021/11/01 11:28:37;;;;;;;;;;;12.30;99.90;;;;;;5000071;28;20000;-73
2021/11/01 11:37:12;;;;;;;;;;;12.30;99.90;;;;;;4991895;28;19941;-73
2021/11/01 11:39:50;;;;;;;;;;;12.50;99.90;;;;;;5003286;28;19933;-72
2021/11/01 11:47:58;;;;;;;;;;;12.60;99.80;;;;;;5004384;28;19932;-73
2021/11/01 11:50:28;;;;;;;;;;;12.60;99.50;;;;;;5008167;28;20010;-72
2021/11/01 11:52:55;;;;;;;;;;;12.60;99.90;;;;;;5004765;28;19934;-72
2021/11/01 11:55:23;;;;;;;;;;;12.50;99.50;;;;;;5005284;28;20377;-73
2021/11/01 11:57:55;;;;;;;;;;;12.50;99.90;;;;;;5001446;28;19925;-73
2021/11/01 12:00:26;;;;;;;;;;;12.70;99.90;;;;;;5006546;28;19929;-73
2021/11/01 12:02:52;;;;;;;;;;;12.70;99.90;;;;;;5005735;28;19925;-74
2021/11/01 12:05:25;;;;;;;;;;;12.70;99.20;;;;;;5001392;28;20278;-73
2021/11/01 12:08:01;;;;;;;;;;;12.80;99.20;;;;;;5001551;28;19925;-73
2021/11/01 12:13:26;;;;;;;;;;;12.70;99.10;;;;;;5005861;28;20557;-72
2021/11/01 12:18:40;;;;;;;;;;;13.10;98.80;;;;;;5001483;28;20311;-72
2021/11/01 12:21:11;;;;;;;;;;;13.20;98.90;;;;;;5002552;28;19925;-72
2021/11/01 12:23:38;;;;;;;;;;;13.10;98.50;;;;;;5001806;28;20039;-73
2021/11/01 12:26:08;;;;;;;;;;;13.10;98.50;;;;;;5006219;28;19925;-72
2021/11/01 12:28:36;;;;;;;;;;;13.00;98.70;;;;;;5004230;28;20423;-73
2021/11/01 12:31:04;;;;;;;;;;;13.00;98.70;;;;;;4997284;28;19949;-73
2021/11/01 12:33:31;;;;;;;;;;;13.10;99.00;;;;;;4992340;28;19933;-72
2021/11/01 12:36:01;;;;;;;;;;;13.10;98.90;;;;;;4999551;28;20048;-73
2021/11/01 12:38:37;;;;;;;;;;;13.20;98.60;;;;;;4999605;28;20517;-73
2021/11/01 12:41:13;;;;;;;;;;;13.20;98.60;;;;;;4999066;28;19934;-72
2021/11/01 12:57:26;;;;;;;;;;;12.70;98.60;;;;;;4997614;28;19944;-71
2021/11/01 12:59:53;;;;;;;;;;;12.60;98.80;;;;;;5005781;28;19949;-74
2021/11/01 13:02:32;;;;;;;;;;;12.70;99.30;;;;;;4999078;28;20356;-72
2021/11/01 13:05:00;;;;;;;;;;;12.90;98.70;;;;;;5004343;28;19944;-73
2021/11/01 13:07:39;;;;;;;;;;;13.00;98.40;;;;;;5003219;28;19937;-72
2021/11/01 13:10:13;;;;;;;;;;;12.90;98.10;;;;;;5002383;28;19925;-72
2021/11/01 13:12:52;;;;;;;;;;;12.90;98.40;;;;;;5003634;28;20323;-72
2021/11/01 13:18:11;;;;;;;;;;;13.00;98.20;;;;;;5004584;28;19932;-71
2021/11/01 13:20:39;;;;;;;;;;;13.10;98.30;;;;;;5004661;28;19961;-73
2021/11/01 13:23:07;;;;;;;;;;;13.10;98.40;;;;;;5005418;28;20379;-72
2021/11/01 13:25:41;;;;;;;;;;;13.10;98.00;;;;;;5001526;28;19940;-73
2021/11/01 13:37:10;;;;;;;;;;;12.80;97.60;;;;;;4998567;28;19933;-73
2021/11/01 13:39:37;;;;;;;;;;;12.90;97.70;;;;;;5001488;28;19933;-72
2021/11/01 13:42:09;;;;;;;;;;;13.10;97.70;;;;;;5002022;28;19926;-72
2021/11/01 13:44:38;;;;;;;;;;;13.00;97.60;;;;;;4999366;28;19936;-73
2021/11/01 13:47:06;;;;;;;;;;;12.90;97.70;;;;;;5001366;28;20056;-73
2021/11/01 13:49:35;;;;;;;;;;;12.80;97.60;;;;;;5001314;28;19971;-73
2021/11/01 13:52:14;;;;;;;;;;;12.70;97.60;;;;;;5004041;28;19926;-73
2021/11/01 13:54:53;;;;;;;;;;;12.70;97.70;;;;;;5001041;28;19949;-72
2021/11/01 13:57:20;;;;;;;;;;;12.70;97.70;;;;;;5002023;28;19936;-72
2021/11/01 13:59:51;;;;;;;;;;;12.80;97.80;;;;;;5002002;28;20056;-72
2021/11/01 14:02:50;;;;;;;;;;;12.80;97.60;;;;;;4998924;28;20012;-72
2021/11/01 14:11:15;;;;;;;;;;;12.80;97.50;;;;;;4927872;29;19926;-72
2021/11/01 14:13:55;;;;;;;;;;;12.80;97.60;;;;;;4993785;28;20317;-73
2021/11/01 14:16:27;;;;;;;;;;;12.70;97.50;;;;;;5002242;28;20509;-72
2021/11/01 14:27:28;;;;;;;;;;;12.70;97.20;;;;;;4998985;28;19941;-74
2021/11/01 15:14:59;;;;;;;;;;;11.70;99.90;;;;;;5096268;28;20381;-73
2021/11/01 15:17:52;;;;;;;;;;;11.70;99.90;;;;;;5097750;28;19927;-72
2021/11/01 15:26:06;;;;;;;;;;;11.80;99.90;;;;;;5095522;28;19924;-73
2021/11/01 15:28:53;;;;;;;;;;;11.80;99.90;;;;;;5094838;28;19924;-73
2021/11/01 15:37:20;;;;;;;;;;;11.80;99.90;;;;;;5094392;28;19943;-74
2021/11/01 16:18:15;;;;;;;;;;;9.50;99.90;;;;;;5076246;28;19944;-74
2021/11/01 16:20:42;;;;;;;;;;;9.50;99.90;;;;;;5093075;28;19924;-74
2021/11/01 16:25:58;;;;;;;;;;;9.40;99.90;;;;;;5074124;28;19924;-74
2021/11/01 16:28:28;;;;;;;;;;;9.40;99.90;;;;;;5076068;28;19936;-76
2021/11/01 16:31:10;;;;;;;;;;;9.30;99.90;;;;;;5077749;28;19924;-75
2021/11/01 16:33:44;;;;;;;;;;;9.30;99.90;;;;;;5076282;28;19978;-73
2021/11/01 16:36:21;;;;;;;;;;;9.30;99.90;;;;;;5077286;28;19932;-75
2021/11/01 16:38:51;;;;;;;;;;;9.20;99.90;;;;;;5076629;28;19940;-75
2021/11/01 16:41:19;;;;;;;;;;;9.20;99.90;;;;;;5079179;28;19932;-74
2021/11/01 16:43:48;;;;;;;;;;;9.10;99.90;;;;;;5075800;28;19932;-75
2021/11/01 16:46:14;;;;;;;;;;;9.00;99.90;;;;;;5074089;28;20039;-77
2021/11/01 16:48:43;;;;;;;;;;;8.90;99.90;;;;;;5076136;28;19924;-75
2021/11/01 16:51:10;;;;;;;;;;;8.90;99.90;;;;;;5072896;28;20288;-77
2021/11/01 16:53:41;;;;;;;;;;;8.90;99.90;;;;;;5070223;28;19932;-74
2021/11/01 16:56:22;;;;;;;;;;;8.80;99.90;;;;;;5076148;28;20007;-76
2021/11/01 16:58:54;;;;;;;;;;;8.80;99.90;;;;;;5075409;28;20031;-78
2021/11/01 17:01:23;;;;;;;;;;;8.70;99.90;;;;;;5068984;28;20032;-74
2021/11/01 17:03:57;;;;;;;;;;;8.80;99.90;;;;;;5082219;28;20022;-75
2021/11/01 17:06:32;;;;;;;;;;;8.70;99.90;;;;;;5073899;28;19924;-75
2021/11/01 17:22:49;;;;;;;;;;;8.80;99.90;;;;;;5077018;28;19931;-75
2021/11/01 17:25:20;;;;;;;;;;;8.80;99.90;;;;;;5075139;28;19924;-75
2021/11/01 17:36:18;;;;;;;;;;;8.90;99.90;;;;;;5074800;28;20031;-75
2021/11/01 17:39:08;;;;;;;;;;;8.90;99.90;;;;;;5074868;28;19969;-75
2021/11/01 18:45:19;;;;;;;;;;;8.30;99.90;;;;;;5023657;28;19928;-73
2021/11/01 18:53:24;;;;;;;;;;;8.30;99.90;;;;;;5060721;28;19993;-75
2021/11/01 18:55:53;;;;;;;;;;;8.20;99.90;;;;;;5082778;28;20471;-76
2021/11/01 18:58:23;;;;;;;;;;;8.20;99.90;;;;;;5079824;28;19975;-72
2021/11/01 19:00:51;;;;;;;;;;;8.20;99.90;;;;;;5088938;28;19967;-72
2021/11/01 19:03:19;;;;;;;;;;;8.20;99.90;;;;;;5089601;28;19968;-74
2021/11/01 19:05:54;;;;;;;;;;;8.10;99.90;;;;;;5078831;28;20331;-74
2021/11/01 19:08:34;;;;;;;;;;;8.10;99.90;;;;;;5082574;28;19924;-75
2021/11/01 19:14:21;;;;;;;;;;;8.10;99.90;;;;;;5072791;28;20062;-77
2021/11/01 20:04:26;;;;;;;;;;;7.50;99.90;;;;;;5091703;28;20103;-78
2021/11/01 20:10:13;;;;;;;;;;;7.50;99.90;;;;;;5065972;28;19925;-78
2021/11/01 20:13:12;;;;;;;;;;;7.40;99.90;;;;;;5082401;28;19954;-77
2021/11/01 20:15:57;;;;;;;;;;;7.40;99.90;;;;;;5083565;28;19932;-77
2021/11/01 21:27:45;;;;;;;;;;;6.90;99.90;;;;;;5060808;28;19940;-75
2021/11/01 21:30:12;;;;;;;;;;;6.90;99.90;;;;;;5085941;28;19924;-77
2021/11/01 21:32:39;;;;;;;;;;;7.00;99.90;;;;;;5079691;28;20035;-77
2021/11/01 21:35:09;;;;;;;;;;;7.00;99.90;;;;;;5076940;28;19924;-75
2021/11/01 21:37:35;;;;;;;;;;;7.00;99.90;;;;;;5080819;28;19931;-76
2021/11/01 21:40:05;;;;;;;;;;;7.00;99.90;;;;;;5084694;28;19925;-78
2021/11/01 21:42:32;;;;;;;;;;;6.90;99.90;;;;;;5078211;28;19936;-80
2021/11/01 21:45:00;;;;;;;;;;;7.00;99.90;;;;;;5081624;28;20350;-79
2021/11/01 21:47:27;;;;;;;;;;;7.00;99.90;;;;;;5082724;28;19969;-79
2021/11/01 21:49:54;;;;;;;;;;;6.90;99.90;;;;;;5082838;28;20632;-80
2021/11/01 21:52:21;;;;;;;;;;;6.90;99.90;;;;;;5085196;28;19967;-80
2021/11/01 21:54:49;;;;;;;;;;;7.00;99.90;;;;;;5082478;28;19928;-80
2021/11/01 21:57:19;;;;;;;;;;;7.00;99.90;;;;;;5078361;28;19999;-80
2021/11/01 22:19:22;;;;;;;;;;;7.00;99.90;;;;;;5081786;28;19931;-79
2021/11/01 22:21:53;;;;;;;;;;;7.10;99.90;;;;;;5079627;28;19938;-79
2021/11/01 22:24:25;;;;;;;;;;;7.00;99.90;;;;;;5081889;28;20024;-79
2021/11/01 22:32:33;;;;;;;;;;;7.00;99.90;;;;;;5077005;28;19931;-78
2021/11/01 22:40:33;;;;;;;;;;;7.10;99.90;;;;;;5086887;28;19939;-78
2021/11/01 22:43:05;;;;;;;;;;;7.20;99.90;;;;;;5083741;28;19939;-77
2021/11/01 22:45:38;;;;;;;;;;;7.20;99.90;;;;;;5084116;28;19933;-78
2021/11/01 22:56:24;;;;;;;;;;;7.10;99.90;;;;;;5078278;28;19936;-77
2021/11/01 22:58:53;;;;;;;;;;;7.10;99.90;;;;;;5082251;28;19932;-77
2021/11/01 23:01:22;;;;;;;;;;;7.10;99.90;;;;;;5083333;28;20362;-77
2021/11/01 23:03:59;;;;;;;;;;;7.10;99.90;;;;;;5075629;28;19978;-77
2021/11/01 23:06:55;;;;;;;;;;;7.10;99.90;;;;;;5080631;28;20423;-77
2021/11/01 23:31:30;;;;;;;;;;;7.10;99.90;;;;;;5078778;28;19952;-76
2021/11/01 23:33:57;;;;;;;;;;;7.20;99.90;;;;;;5090200;28;19967;-77
2021/11/01 23:36:24;;;;;;;;;;;7.20;99.90;;;;;;5088826;28;20011;-77
2021/11/01 23:38:52;;;;;;;;;;;7.20;99.90;;;;;;5089670;28;20007;-77
2021/11/01 23:41:19;;;;;;;;;;;7.20;99.90;;;;;;5085757;28;20446;-77
2021/11/01 23:43:47;;;;;;;;;;;7.20;99.90;;;;;;5076238;28;19947;-76
2021/11/01 23:46:14;;;;;;;;;;;7.20;99.90;;;;;;5092733;28;20401;-78
2021/11/01 23:48:41;;;;;;;;;;;7.10;99.90;;;;;;5087610;28;20341;-77
2021/11/01 23:51:10;;;;;;;;;;;7.10;99.90;;;;;;5086287;28;19924;-77
2021/11/01 23:53:40;;;;;;;;;;;7.10;99.90;;;;;;5086449;28;19985;-76
2021/11/01 23:56:09;;;;;;;;;;;7.10;99.90;;;;;;5090213;28;20302;-76
2021/11/01 23:58:37;;;;;;;;;;;7.10;99.90;;;;;;5080789;28;20019;-76
